sensor_id;sensor_type;location;lat;lon;timestamp;pressure;altitude;pressure_sealevel;temperature;humidity
34177;BME280;20450;49.074;9.158;2023-02-24T00:00:15;99367.84;;;10.34;87.92
34177;BME280;20450;49.074;9.158;2023-02-24T00:02:43;99366.28;;;10.44;87.93
34177;BME280;20450;49.074;9.158;2023-02-24T00:05:09;99365.34;;;10.57;87.80
34177;BME280;20450;49.074;9.158;2023-02-24T00:07:38;99360.31;;;10.60;85.86
34177;BME280;20450;49.074;9.158;2023-02-24T00:10:05;99356.13;;;10.64;86.31
34177;BME280;20450;49.074;9.158;2023-02-24T00:12:33;99363.00;;;10.36;86.20
34177;BME280;20450;49.074;9.158;2023-02-24T00:15:00;99368.16;;;10.19;87.78
34177;BME280;20450;49.074;9.158;2023-02-24T00:17:27;99363.53;;;10.26;87.43
34177;BME280;20450;49.074;9.158;2023-02-24T00:19:54;99361.41;;;10.28;88.13
34177;BME280;20450;49.074;9.158;2023-02-24T00:22:21;99362.34;;;10.40;87.58
34177;BME280;20450;49.074;9.158;2023-02-24T00:24:52;99362.53;;;10.45;87.20
34177;BME280;20450;49.074;9.158;2023-02-24T00:27:20;99364.56;;;10.50;86.91
34177;BME280;20450;49.074;9.158;2023-02-24T00:29:47;99358.50;;;10.54;86.58
34177;BME280;20450;49.074;9.158;2023-02-24T00:32:14;99357.63;;;10.60;85.91
34177;BME280;20450;49.074;9.158;2023-02-24T00:34:41;99355.31;;;10.64;86.35
34177;BME280;20450;49.074;9.158;2023-02-24T00:37:08;99355.47;;;10.69;86.00
34177;BME280;20450;49.074;9.158;2023-02-24T00:39:36;99352.44;;;10.59;86.92
34177;BME280;20450;49.074;9.158;2023-02-24T00:42:05;99352.22;;;10.60;86.25
34177;BME280;20450;49.074;9.158;2023-02-24T00:44:35;99346.16;;;10.65;86.46
34177;BME280;20450;49.074;9.158;2023-02-24T00:47:05;99335.56;;;10.63;86.12
34177;BME280;20450;49.074;9.158;2023-02-24T00:49:34;99334.25;;;10.72;86.47
34177;BME280;20450;49.074;9.158;2023-02-24T00:52:02;99328.06;;;10.83;86.40
34177;BME280;20450;49.074;9.158;2023-02-24T00:54:29;99327.19;;;10.89;85.71
34177;BME280;20450;49.074;9.158;2023-02-24T00:56:56;99323.22;;;10.92;84.94
34177;BME280;20450;49.074;9.158;2023-02-24T00:59:24;99328.97;;;10.77;84.14
34177;BME280;20450;49.074;9.158;2023-02-24T01:01:52;99332.72;;;10.76;84.96
34177;BME280;20450;49.074;9.158;2023-02-24T01:04:20;99331.09;;;10.75;86.09
34177;BME280;20450;49.074;9.158;2023-02-24T01:06:51;99327.78;;;10.73;84.71
34177;BME280;20450;49.074;9.158;2023-02-24T01:09:19;99336.31;;;10.70;85.31
34177;BME280;20450;49.074;9.158;2023-02-24T01:11:48;99331.53;;;10.72;85.23
34177;BME280;20450;49.074;9.158;2023-02-24T01:14:17;99324.84;;;10.75;85.70
34177;BME280;20450;49.074;9.158;2023-02-24T01:16:47;99328.97;;;10.77;85.30
34177;BME280;20450;49.074;9.158;2023-02-24T01:19:15;99330.69;;;10.72;85.69
34177;BME280;20450;49.074;9.158;2023-02-24T01:21:42;99321.78;;;10.71;84.71
34177;BME280;20450;49.074;9.158;2023-02-24T01:24:09;99315.34;;;10.72;85.36
34177;BME280;20450;49.074;9.158;2023-02-24T01:26:36;99312.41;;;10.74;85.17
34177;BME280;20450;49.074;9.158;2023-02-24T01:29:04;99317.81;;;10.74;85.29
34177;BME280;20450;49.074;9.158;2023-02-24T01:31:31;99324.00;;;10.74;85.26
34177;BME280;20450;49.074;9.158;2023-02-24T01:33:59;99309.09;;;10.72;84.54
34177;BME280;20450;49.074;9.158;2023-02-24T01:36:26;99311.34;;;10.75;85.36
34177;BME280;20450;49.074;9.158;2023-02-24T01:38:53;99310.28;;;10.76;84.56
34177;BME280;20450;49.074;9.158;2023-02-24T01:41:22;99303.00;;;10.76;84.61
34177;BME280;20450;49.074;9.158;2023-02-24T01:43:59;99308.41;;;10.76;84.67
34177;BME280;20450;49.074;9.158;2023-02-24T01:46:31;99303.00;;;10.76;84.80
34177;BME280;20450;49.074;9.158;2023-02-24T01:49:02;99308.41;;;10.76;84.51
34177;BME280;20450;49.074;9.158;2023-02-24T01:51:37;99299.13;;;10.72;84.54
34177;BME280;20450;49.074;9.158;2023-02-24T01:54:09;99293.56;;;10.67;83.88
34177;BME280;20450;49.074;9.158;2023-02-24T01:56:40;99299.56;;;10.69;84.60
34177;BME280;20450;49.074;9.158;2023-02-24T01:59:09;99294.38;;;10.68;84.84
34177;BME280;20450;49.074;9.158;2023-02-24T02:01:38;99295.22;;;10.68;84.10
34177;BME280;20450;49.074;9.158;2023-02-24T02:04:13;99289.00;;;10.68;84.84
34177;BME280;20450;49.074;9.158;2023-02-24T02:06:44;99289.22;;;10.66;84.60
34177;BME280;20450;49.074;9.158;2023-02-24T02:09:14;99292.97;;;10.65;84.83
34177;BME280;20450;49.074;9.158;2023-02-24T02:11:42;99268.56;;;10.54;85.37
34177;BME280;20450;49.074;9.158;2023-02-24T02:14:09;99261.44;;;10.17;86.33
34177;BME280;20450;49.074;9.158;2023-02-24T02:16:46;99259.25;;;10.07;86.23
34177;BME280;20450;49.074;9.158;2023-02-24T02:23:20;99270.06;;;9.76;88.29
34177;BME280;20450;49.074;9.158;2023-02-24T02:26:27;99258.13;;;9.65;89.17
34177;BME280;20450;49.074;9.158;2023-02-24T02:32:44;99250.47;;;9.87;89.34
34177;BME280;20450;49.074;9.158;2023-02-24T02:35:35;99254.53;;;9.96;88.75
34177;BME280;20450;49.074;9.158;2023-02-24T02:38:12;99247.81;;;10.05;88.52
34177;BME280;20450;49.074;9.158;2023-02-24T02:40:51;99252.53;;;10.16;88.59
34177;BME280;20450;49.074;9.158;2023-02-24T02:43:30;99260.88;;;10.33;87.11
34177;BME280;20450;49.074;9.158;2023-02-24T02:46:12;99249.41;;;10.37;86.28
34177;BME280;20450;49.074;9.158;2023-02-24T02:48:48;99253.34;;;10.41;86.40
34177;BME280;20450;49.074;9.158;2023-02-24T02:51:27;99240.84;;;10.22;86.10
34177;BME280;20450;49.074;9.158;2023-02-24T02:54:01;99243.22;;;10.12;86.71
34177;BME280;20450;49.074;9.158;2023-02-24T02:56:36;99235.28;;;10.17;87.13
34177;BME280;20450;49.074;9.158;2023-02-24T02:59:08;99234.44;;;10.17;86.58
34177;BME280;20450;49.074;9.158;2023-02-24T03:01:43;99231.19;;;10.15;87.15
34177;BME280;20450;49.074;9.158;2023-02-24T03:04:12;99234.09;;;10.13;86.93
34177;BME280;20450;49.074;9.158;2023-02-24T03:06:48;99236.56;;;10.15;87.46
34177;BME280;20450;49.074;9.158;2023-02-24T03:09:22;99237.00;;;10.12;87.34
34177;BME280;20450;49.074;9.158;2023-02-24T03:11:55;99237.47;;;10.09;87.68
34177;BME280;20450;49.074;9.158;2023-02-24T03:14:31;99236.19;;;10.04;87.41
34177;BME280;20450;49.074;9.158;2023-02-24T03:17:02;99239.00;;;9.67;88.60
34177;BME280;20450;49.074;9.158;2023-02-24T03:19:36;99238.94;;;9.49;89.40
34177;BME280;20450;49.074;9.158;2023-02-24T03:22:09;99231.06;;;9.47;90.04
34177;BME280;20450;49.074;9.158;2023-02-24T03:24:40;99228.75;;;9.51;89.98
34177;BME280;20450;49.074;9.158;2023-02-24T03:27:18;99233.69;;;9.54;89.98
34177;BME280;20450;49.074;9.158;2023-02-24T03:29:56;99229.69;;;9.63;89.85
34177;BME280;20450;49.074;9.158;2023-02-24T03:32:30;99227.72;;;9.76;89.77
34177;BME280;20450;49.074;9.158;2023-02-24T03:35:10;99219.28;;;9.91;89.31
34177;BME280;20450;49.074;9.158;2023-02-24T03:37:44;99228.47;;;9.83;88.33
34177;BME280;20450;49.074;9.158;2023-02-24T03:40:13;99227.34;;;9.73;89.05
34177;BME280;20450;49.074;9.158;2023-02-24T03:42:44;99232.47;;;9.81;89.16
34177;BME280;20450;49.074;9.158;2023-02-24T03:45:14;99222.84;;;9.67;89.33
34177;BME280;20450;49.074;9.158;2023-02-24T03:47:42;99214.81;;;9.54;89.58
34177;BME280;20450;49.074;9.158;2023-02-24T03:50:11;99214.00;;;9.53;89.78
34177;BME280;20450;49.074;9.158;2023-02-24T03:52:45;99222.09;;;9.53;90.09
34177;BME280;20450;49.074;9.158;2023-02-24T03:55:32;99219.63;;;9.52;90.15
34177;BME280;20450;49.074;9.158;2023-02-24T03:58:16;99218.31;;;9.61;90.05
34177;BME280;20450;49.074;9.158;2023-02-24T04:00:52;99220.50;;;9.70;90.13
34177;BME280;20450;49.074;9.158;2023-02-24T04:03:31;99218.44;;;9.72;89.82
34177;BME280;20450;49.074;9.158;2023-02-24T04:06:19;99212.69;;;9.87;89.53
34177;BME280;20450;49.074;9.158;2023-02-24T04:09:01;99216.44;;;9.86;88.37
34177;BME280;20450;49.074;9.158;2023-02-24T04:11:43;99216.06;;;9.58;89.34
34177;BME280;20450;49.074;9.158;2023-02-24T04:14:21;99218.59;;;9.46;89.73
34177;BME280;20450;49.074;9.158;2023-02-24T04:16:59;99220.13;;;9.36;90.38
34177;BME280;20450;49.074;9.158;2023-02-24T04:19:34;99214.72;;;9.42;90.77
34177;BME280;20450;49.074;9.158;2023-02-24T04:22:08;99217.69;;;9.59;90.88
34177;BME280;20450;49.074;9.158;2023-02-24T04:24:43;99218.66;;;9.71;90.74
34177;BME280;20450;49.074;9.158;2023-02-24T04:27:17;99203.22;;;9.78;89.94
34177;BME280;20450;49.074;9.158;2023-02-24T04:29:49;99202.31;;;9.90;89.50
34177;BME280;20450;49.074;9.158;2023-02-24T04:32:21;99193.31;;;9.96;89.17
34177;BME280;20450;49.074;9.158;2023-02-24T04:34:52;99197.00;;;10.02;88.49
34177;BME280;20450;49.074;9.158;2023-02-24T04:37:19;99193.44;;;10.08;88.54
34177;BME280;20450;49.074;9.158;2023-02-24T04:39:49;99191.13;;;10.12;87.73
34177;BME280;20450;49.074;9.158;2023-02-24T04:42:23;99180.13;;;10.13;87.34
34177;BME280;20450;49.074;9.158;2023-02-24T04:44:50;99185.66;;;10.18;86.55
34177;BME280;20450;49.074;9.158;2023-02-24T04:47:18;99187.31;;;10.19;86.70
34177;BME280;20450;49.074;9.158;2023-02-24T04:49:45;99171.94;;;10.20;86.07
34177;BME280;20450;49.074;9.158;2023-02-24T04:52:11;99169.19;;;10.26;86.17
34177;BME280;20450;49.074;9.158;2023-02-24T04:54:38;99171.25;;;10.24;86.61
34177;BME280;20450;49.074;9.158;2023-02-24T04:57:06;99166.69;;;10.25;85.93
34177;BME280;20450;49.074;9.158;2023-02-24T04:59:33;99158.38;;;10.26;85.99
34177;BME280;20450;49.074;9.158;2023-02-24T05:02:00;99159.22;;;10.27;85.35
34177;BME280;20450;49.074;9.158;2023-02-24T05:04:27;99161.06;;;10.26;85.00
34177;BME280;20450;49.074;9.158;2023-02-24T05:06:54;99158.38;;;10.26;84.70
34177;BME280;20450;49.074;9.158;2023-02-24T05:09:22;99152.16;;;10.26;84.46
34177;BME280;20450;49.074;9.158;2023-02-24T05:11:51;99154.25;;;10.24;85.36
34177;BME280;20450;49.074;9.158;2023-02-24T05:14:19;99150.00;;;10.16;85.25
34177;BME280;20450;49.074;9.158;2023-02-24T05:16:47;99154.94;;;10.19;84.69
34177;BME280;20450;49.074;9.158;2023-02-24T05:19:17;99150.56;;;10.18;85.57
34177;BME280;20450;49.074;9.158;2023-02-24T05:21:45;99142.69;;;10.17;85.41
34177;BME280;20450;49.074;9.158;2023-02-24T05:24:12;99145.28;;;10.05;84.32
34177;BME280;20450;49.074;9.158;2023-02-24T05:26:39;99136.28;;;9.93;84.51
34177;BME280;20450;49.074;9.158;2023-02-24T05:29:06;99136.66;;;9.96;85.18
34177;BME280;20450;49.074;9.158;2023-02-24T05:31:34;99141.84;;;9.98;85.29
34177;BME280;20450;49.074;9.158;2023-02-24T05:34:04;99131.84;;;9.98;84.73
34177;BME280;20450;49.074;9.158;2023-02-24T05:36:33;99137.03;;;10.00;84.84
34177;BME280;20450;49.074;9.158;2023-02-24T05:39:02;99132.06;;;9.97;84.44
34177;BME280;20450;49.074;9.158;2023-02-24T05:41:29;99123.84;;;9.92;84.24
34177;BME280;20450;49.074;9.158;2023-02-24T05:43:56;99118.66;;;9.90;84.03
34177;BME280;20450;49.074;9.158;2023-02-24T05:46:25;99123.69;;;9.87;84.29
34177;BME280;20450;49.074;9.158;2023-02-24T05:48:54;99119.78;;;9.83;84.67
34177;BME280;20450;49.074;9.158;2023-02-24T05:51:22;99118.72;;;9.84;84.58
34177;BME280;20450;49.074;9.158;2023-02-24T05:53:50;99113.72;;;9.87;84.64
34177;BME280;20450;49.074;9.158;2023-02-24T05:56:16;99121.34;;;9.72;84.03
34177;BME280;20450;49.074;9.158;2023-02-24T05:58:43;99112.94;;;9.62;84.68
34177;BME280;20450;49.074;9.158;2023-02-24T06:01:10;99108.97;;;9.65;84.66
34177;BME280;20450;49.074;9.158;2023-02-24T06:03:38;99107.31;;;9.64;84.91
34177;BME280;20450;49.074;9.158;2023-02-24T06:06:06;99104.63;;;9.64;84.82
34177;BME280;20450;49.074;9.158;2023-02-24T06:08:34;99101.72;;;9.65;84.73
34177;BME280;20450;49.074;9.158;2023-02-24T06:11:01;99104.84;;;9.62;84.50
34177;BME280;20450;49.074;9.158;2023-02-24T06:13:28;99105.50;;;9.58;84.27
34177;BME280;20450;49.074;9.158;2023-02-24T06:15:55;99102.81;;;9.58;83.66
34177;BME280;20450;49.074;9.158;2023-02-24T06:18:22;99099.28;;;9.57;83.90
34177;BME280;20450;49.074;9.158;2023-02-24T06:20:49;99099.50;;;9.56;83.70
34177;BME280;20450;49.074;9.158;2023-02-24T06:23:17;99100.81;;;9.47;84.00
34177;BME280;20450;49.074;9.158;2023-02-24T06:25:44;99097.75;;;9.43;84.29
34177;BME280;20450;49.074;9.158;2023-02-24T06:28:11;99099.56;;;9.49;84.58
34177;BME280;20450;49.074;9.158;2023-02-24T06:30:38;99090.94;;;9.41;84.11
34177;BME280;20450;49.074;9.158;2023-02-24T06:33:04;99097.50;;;9.45;84.20
34177;BME280;20450;49.074;9.158;2023-02-24T06:35:31;99095.34;;;9.35;84.32
34177;BME280;20450;49.074;9.158;2023-02-24T06:37:58;99094.72;;;9.33;84.54
34177;BME280;20450;49.074;9.158;2023-02-24T06:40:26;99083.78;;;9.28;84.44
34177;BME280;20450;49.074;9.158;2023-02-24T06:42:53;99094.94;;;9.32;84.72
34177;BME280;20450;49.074;9.158;2023-02-24T06:45:21;99089.59;;;9.50;88.00
34177;BME280;20450;49.074;9.158;2023-02-24T06:47:49;99086.88;;;9.74;89.24
34177;BME280;20450;49.074;9.158;2023-02-24T06:50:17;99093.25;;;9.80;85.10
34177;BME280;20450;49.074;9.158;2023-02-24T06:52:45;99079.03;;;9.73;83.53
34177;BME280;20450;49.074;9.158;2023-02-24T06:55:13;99080.94;;;9.66;82.75
34177;BME280;20450;49.074;9.158;2023-02-24T06:57:51;99082.59;;;9.67;82.98
34177;BME280;20450;49.074;9.158;2023-02-24T07:00:19;99093.63;;;9.65;83.36
34177;BME280;20450;49.074;9.158;2023-02-24T07:02:47;99077.69;;;9.15;84.67
34177;BME280;20450;49.074;9.158;2023-02-24T07:05:13;99082.56;;;9.24;85.36
34177;BME280;20450;49.074;9.158;2023-02-24T07:07:41;99083.28;;;9.38;85.56
34177;BME280;20450;49.074;9.158;2023-02-24T07:10:09;99083.16;;;9.51;83.80
34177;BME280;20450;49.074;9.158;2023-02-24T07:12:36;99080.50;;;9.69;82.83
34177;BME280;20450;49.074;9.158;2023-02-24T07:15:07;99088.09;;;9.78;82.55
34177;BME280;20450;49.074;9.158;2023-02-24T07:17:35;99081.28;;;9.76;83.11
34177;BME280;20450;49.074;9.158;2023-02-24T07:20:02;99088.00;;;9.67;82.02
34177;BME280;20450;49.074;9.158;2023-02-24T07:22:30;99090.44;;;9.26;84.35
34177;BME280;20450;49.074;9.158;2023-02-24T07:24:57;99090.97;;;9.34;84.35
34177;BME280;20450;49.074;9.158;2023-02-24T07:27:24;99093.41;;;9.42;84.62
34177;BME280;20450;49.074;9.158;2023-02-24T07:29:51;99090.44;;;9.50;83.62
34177;BME280;20450;49.074;9.158;2023-02-24T07:32:40;99082.13;;;9.52;83.45
34177;BME280;20450;49.074;9.158;2023-02-24T07:35:07;99077.34;;;9.72;83.22
34177;BME280;20450;49.074;9.158;2023-02-24T07:37:38;99074.66;;;9.72;82.75
34177;BME280;20450;49.074;9.158;2023-02-24T07:40:08;99071.38;;;9.70;82.76
34177;BME280;20450;49.074;9.158;2023-02-24T07:42:36;99070.53;;;9.69;82.08
34177;BME280;20450;49.074;9.158;2023-02-24T07:45:05;99065.16;;;9.69;82.49
34177;BME280;20450;49.074;9.158;2023-02-24T07:47:33;99068.59;;;9.76;82.23
34177;BME280;20450;49.074;9.158;2023-02-24T07:50:02;99066.88;;;9.82;81.51
34177;BME280;20450;49.074;9.158;2023-02-24T07:52:29;99066.78;;;9.70;81.50
34177;BME280;20450;49.074;9.158;2023-02-24T07:55:01;99064.97;;;9.64;82.30
34177;BME280;20450;49.074;9.158;2023-02-24T07:57:28;99068.78;;;9.57;82.30
34177;BME280;20450;49.074;9.158;2023-02-24T07:59:58;99069.22;;;9.54;82.57
34177;BME280;20450;49.074;9.158;2023-02-24T08:02:25;99062.16;;;9.59;83.16
34177;BME280;20450;49.074;9.158;2023-02-24T08:04:52;99054.41;;;9.63;83.04
34177;BME280;20450;49.074;9.158;2023-02-24T08:07:20;99058.69;;;9.70;83.34
34177;BME280;20450;49.074;9.158;2023-02-24T08:09:47;99058.75;;;9.46;83.28
34177;BME280;20450;49.074;9.158;2023-02-24T08:12:17;99051.28;;;9.66;82.95
34177;BME280;20450;49.074;9.158;2023-02-24T08:14:46;99055.34;;;9.75;82.20
34177;BME280;20450;49.074;9.158;2023-02-24T08:17:16;99060.06;;;9.79;81.85
34177;BME280;20450;49.074;9.158;2023-02-24T08:19:45;99045.50;;;9.80;81.58
34177;BME280;20450;49.074;9.158;2023-02-24T08:22:15;99051.84;;;9.74;82.42
34177;BME280;20450;49.074;9.158;2023-02-24T08:24:44;99049.72;;;9.76;82.53
34177;BME280;20450;49.074;9.158;2023-02-24T08:27:11;99045.50;;;9.80;81.83
34177;BME280;20450;49.074;9.158;2023-02-24T08:29:38;99040.50;;;9.84;81.88
34177;BME280;20450;49.074;9.158;2023-02-24T08:32:05;99042.59;;;10.00;80.43
34177;BME280;20450;49.074;9.158;2023-02-24T08:34:32;99048.16;;;10.05;80.20
34177;BME280;20450;49.074;9.158;2023-02-24T08:36:58;99039.41;;;10.10;79.89
34177;BME280;20450;49.074;9.158;2023-02-24T08:39:26;99040.69;;;10.07;80.20
34177;BME280;20450;49.074;9.158;2023-02-24T08:41:55;99045.44;;;10.05;80.29
34177;BME280;20450;49.074;9.158;2023-02-24T08:44:23;99034.50;;;10.00;79.59
34177;BME280;20450;49.074;9.158;2023-02-24T08:46:50;99018.88;;;10.09;80.03
34177;BME280;20450;49.074;9.158;2023-02-24T08:49:23;99021.41;;;10.22;79.97
34177;BME280;20450;49.074;9.158;2023-02-24T08:51:51;99024.94;;;10.22;79.71
34177;BME280;20450;49.074;9.158;2023-02-24T08:54:20;99026.75;;;10.10;79.38
34177;BME280;20450;49.074;9.158;2023-02-24T08:56:49;99031.00;;;9.99;79.44
34177;BME280;20450;49.074;9.158;2023-02-24T08:59:17;99027.69;;;9.97;80.54
34177;BME280;20450;49.074;9.158;2023-02-24T09:01:44;99024.16;;;9.97;80.33
34177;BME280;20450;49.074;9.158;2023-02-24T09:04:19;99021.47;;;9.97;80.28
34177;BME280;20450;49.074;9.158;2023-02-24T09:06:50;99020.78;;;10.01;80.21
34177;BME280;20450;49.074;9.158;2023-02-24T09:09:23;99019.91;;;10.08;80.70
34177;BME280;20450;49.074;9.158;2023-02-24T09:11:55;99025.09;;;10.09;80.16
34177;BME280;20450;49.074;9.158;2023-02-24T09:14:27;99013.25;;;10.10;81.03
34177;BME280;20450;49.074;9.158;2023-02-24T09:16:58;99010.91;;;10.14;80.78
34177;BME280;20450;49.074;9.158;2023-02-24T09:19:28;99001.09;;;10.19;80.69
34177;BME280;20450;49.074;9.158;2023-02-24T09:21:56;98993.97;;;10.25;80.30
34177;BME280;20450;49.074;9.158;2023-02-24T09:24:23;98992.66;;;10.27;79.36
34177;BME280;20450;49.074;9.158;2023-02-24T09:26:50;98998.78;;;10.34;79.48
34177;BME280;20450;49.074;9.158;2023-02-24T09:29:17;99000.19;;;10.55;79.34
34177;BME280;20450;49.074;9.158;2023-02-24T09:31:45;99003.03;;;10.42;78.09
34177;BME280;20450;49.074;9.158;2023-02-24T09:34:13;98995.84;;;10.36;78.14
34177;BME280;20450;49.074;9.158;2023-02-24T09:36:40;99002.56;;;10.33;77.41
34177;BME280;20450;49.074;9.158;2023-02-24T09:39:08;98994.31;;;10.28;78.24
34177;BME280;20450;49.074;9.158;2023-02-24T09:41:37;98998.66;;;10.29;77.79
34177;BME280;20450;49.074;9.158;2023-02-24T09:44:11;98992.91;;;10.26;78.24
34177;BME280;20450;49.074;9.158;2023-02-24T09:46:46;98991.03;;;10.26;78.12
34177;BME280;20450;49.074;9.158;2023-02-24T09:49:20;98987.00;;;10.17;78.37
34177;BME280;20450;49.074;9.158;2023-02-24T09:51:49;98985.38;;;10.16;78.41
34177;BME280;20450;49.074;9.158;2023-02-24T09:54:19;98988.88;;;10.17;79.01
34177;BME280;20450;49.074;9.158;2023-02-24T09:56:51;98980.53;;;10.18;78.17
34177;BME280;20450;49.074;9.158;2023-02-24T09:59:28;98983.91;;;10.14;78.35
34177;BME280;20450;49.074;9.158;2023-02-24T10:02:23;98979.13;;;10.16;78.91
34177;BME280;20450;49.074;9.158;2023-02-24T10:05:08;98971.88;;;10.16;78.23
34177;BME280;20450;49.074;9.158;2023-02-24T10:07:48;98962.16;;;10.27;77.90
34177;BME280;20450;49.074;9.158;2023-02-24T10:10:19;98955.59;;;10.34;77.57
34177;BME280;20450;49.074;9.158;2023-02-24T10:12:51;98960.41;;;10.32;77.55
34177;BME280;20450;49.074;9.158;2023-02-24T10:15:26;98963.25;;;10.37;77.15
34177;BME280;20450;49.074;9.158;2023-02-24T10:18:11;98962.91;;;10.45;77.84
34177;BME280;20450;49.074;9.158;2023-02-24T10:21:09;98962.09;;;10.45;77.57
34177;BME280;20450;49.074;9.158;2023-02-24T10:23:54;98954.69;;;10.40;77.17
34177;BME280;20450;49.074;9.158;2023-02-24T10:26:36;98960.00;;;10.47;77.19
34177;BME280;20450;49.074;9.158;2023-02-24T10:29:32;98950.81;;;10.48;76.81
34177;BME280;20450;49.074;9.158;2023-02-24T10:32:18;98947.56;;;10.46;76.18
34177;BME280;20450;49.074;9.158;2023-02-24T10:34:48;98942.88;;;10.53;76.48
34177;BME280;20450;49.074;9.158;2023-02-24T10:37:18;98947.34;;;10.70;75.48
34177;BME280;20450;49.074;9.158;2023-02-24T10:39:59;98938.22;;;10.83;74.74
34177;BME280;20450;49.074;9.158;2023-02-24T10:42:30;98932.69;;;10.89;74.19
34177;BME280;20450;49.074;9.158;2023-02-24T10:45:10;98942.47;;;11.02;74.50
34177;BME280;20450;49.074;9.158;2023-02-24T10:47:48;98938.22;;;11.06;73.85
34177;BME280;20450;49.074;9.158;2023-02-24T10:50:23;98935.88;;;11.09;72.37
34177;BME280;20450;49.074;9.158;2023-02-24T10:52:53;98934.81;;;11.10;73.53
34177;BME280;20450;49.074;9.158;2023-02-24T10:55:30;98931.31;;;11.10;73.11
34177;BME280;20450;49.074;9.158;2023-02-24T10:58:00;98932.00;;;11.17;72.52
34177;BME280;20450;49.074;9.158;2023-02-24T11:00:29;98921.53;;;11.20;73.39
34177;BME280;20450;49.074;9.158;2023-02-24T11:02:55;98919.53;;;11.27;73.11
34177;BME280;20450;49.074;9.158;2023-02-24T11:05:24;98911.06;;;11.35;72.89
34177;BME280;20450;49.074;9.158;2023-02-24T11:08:04;98907.50;;;11.46;72.17
34177;BME280;20450;49.074;9.158;2023-02-24T11:10:38;98893.53;;;11.49;72.27
34177;BME280;20450;49.074;9.158;2023-02-24T11:13:14;98896.94;;;11.45;72.93
34177;BME280;20450;49.074;9.158;2023-02-24T11:15:45;98892.00;;;11.42;72.02
34177;BME280;20450;49.074;9.158;2023-02-24T11:18:17;98888.72;;;11.40;72.73
34177;BME280;20450;49.074;9.158;2023-02-24T11:20:51;98877.53;;;11.48;73.37
34177;BME280;20450;49.074;9.158;2023-02-24T11:23:23;98872.81;;;11.55;73.55
34177;BME280;20450;49.074;9.158;2023-02-24T11:25:58;98874.00;;;11.47;71.10
34177;BME280;20450;49.074;9.158;2023-02-24T11:28:47;98862.03;;;11.43;71.89
34177;BME280;20450;49.074;9.158;2023-02-24T11:31:35;98864.25;;;11.46;71.99
34177;BME280;20450;49.074;9.158;2023-02-24T11:34:18;98856.72;;;11.48;69.84
34177;BME280;20450;49.074;9.158;2023-02-24T11:37:01;98855.34;;;11.34;69.74
34177;BME280;20450;49.074;9.158;2023-02-24T11:39:52;98844.16;;;11.42;69.93
34177;BME280;20450;49.074;9.158;2023-02-24T11:42:41;98835.88;;;11.60;69.56
34177;BME280;20450;49.074;9.158;2023-02-24T11:45:26;98828.28;;;11.74;68.86
34177;BME280;20450;49.074;9.158;2023-02-24T11:48:01;98824.94;;;11.67;68.50
34177;BME280;20450;49.074;9.158;2023-02-24T11:50:37;98821.41;;;11.66;68.64
34177;BME280;20450;49.074;9.158;2023-02-24T11:53:17;98810.09;;;11.69;68.11
34177;BME280;20450;49.074;9.158;2023-02-24T11:55:56;98809.72;;;11.77;67.85
34177;BME280;20450;49.074;9.158;2023-02-24T11:58:34;98799.47;;;11.79;68.30
34177;BME280;20450;49.074;9.158;2023-02-24T12:01:10;98797.03;;;11.95;68.27
34177;BME280;20450;49.074;9.158;2023-02-24T12:03:51;98782.84;;;12.04;67.10
34177;BME280;20450;49.074;9.158;2023-02-24T12:06:30;98781.38;;;12.30;66.01
34177;BME280;20450;49.074;9.158;2023-02-24T12:09:09;98766.81;;;12.90;65.05
34177;BME280;20450;49.074;9.158;2023-02-24T12:11:44;98759.66;;;13.44;62.28
34177;BME280;20450;49.074;9.158;2023-02-24T12:14:24;98733.31;;;13.93;61.29
34177;BME280;20450;49.074;9.158;2023-02-24T12:17:09;98738.72;;;14.24;60.22
34177;BME280;20450;49.074;9.158;2023-02-24T12:19:51;98740.56;;;14.55;58.81
34177;BME280;20450;49.074;9.158;2023-02-24T12:22:29;98737.06;;;14.55;58.27
34177;BME280;20450;49.074;9.158;2023-02-24T12:25:00;98738.78;;;14.71;59.07
34177;BME280;20450;49.074;9.158;2023-02-24T12:27:39;98742.28;;;14.25;58.25
34177;BME280;20450;49.074;9.158;2023-02-24T12:30:25;98734.31;;;13.33;61.47
34177;BME280;20450;49.074;9.158;2023-02-24T12:33:02;98729.97;;;13.32;61.99
34177;BME280;20450;49.074;9.158;2023-02-24T12:35:52;98731.06;;;13.10;62.93
34177;BME280;20450;49.074;9.158;2023-02-24T12:38:35;98723.22;;;12.92;63.71
34177;BME280;20450;49.074;9.158;2023-02-24T12:41:31;98715.59;;;12.89;64.39
34177;BME280;20450;49.074;9.158;2023-02-24T12:44:18;98709.34;;;12.67;64.20
34177;BME280;20450;49.074;9.158;2023-02-24T12:47:00;98705.03;;;12.49;64.28
34177;BME280;20450;49.074;9.158;2023-02-24T12:49:46;98707.59;;;12.39;64.77
34177;BME280;20450;49.074;9.158;2023-02-24T12:52:36;98708.56;;;12.50;65.16
34177;BME280;20450;49.074;9.158;2023-02-24T12:55:20;98706.78;;;12.39;65.70
34177;BME280;20450;49.074;9.158;2023-02-24T12:57:59;98699.06;;;12.31;66.39
34177;BME280;20450;49.074;9.158;2023-02-24T13:00:44;98685.50;;;12.47;66.24
34177;BME280;20450;49.074;9.158;2023-02-24T13:03:32;98690.41;;;12.29;65.47
34177;BME280;20450;49.074;9.158;2023-02-24T13:06:16;98678.88;;;12.38;65.47
34177;BME280;20450;49.074;9.158;2023-02-24T13:09:00;98666.75;;;12.41;65.98
34177;BME280;20450;49.074;9.158;2023-02-24T13:11:37;98671.16;;;12.47;65.87
34177;BME280;20450;49.074;9.158;2023-02-24T13:14:18;98662.03;;;12.53;65.79
34177;BME280;20450;49.074;9.158;2023-02-24T13:16:49;98663.28;;;12.45;65.13
34177;BME280;20450;49.074;9.158;2023-02-24T13:19:19;98657.91;;;12.50;65.03
34177;BME280;20450;49.074;9.158;2023-02-24T13:21:55;98650.81;;;12.66;64.94
34177;BME280;20450;49.074;9.158;2023-02-24T13:24:27;98650.84;;;12.71;64.78
34177;BME280;20450;49.074;9.158;2023-02-24T13:27:04;98647.59;;;12.69;64.59
34177;BME280;20450;49.074;9.158;2023-02-24T13:29:43;98650.81;;;12.66;64.41
34177;BME280;20450;49.074;9.158;2023-02-24T13:32:24;98644.31;;;12.67;64.45
34177;BME280;20450;49.074;9.158;2023-02-24T13:34:56;98640.25;;;12.69;64.55
34177;BME280;20450;49.074;9.158;2023-02-24T13:37:30;98633.22;;;12.68;64.46
34177;BME280;20450;49.074;9.158;2023-02-24T13:39:59;98633.47;;;12.67;64.76